Time;durP1;ratioP1;P1;durP2;ratioP2;P2;SDS_P1;SDS_P2;PMS_P1;PMS_P2;Temp;Humidity;BMP_temperature;BMP_pressure;BME280_temperature;BME280_humidity;BME280_pressure;Samples;Min_cycle;Max_cycle;Signal;HPM_P1;HPM_P2
2023/07/09 00:01:44;;;;;;;19.15;11.68;;;;;;;25.88;74.08;101565.75;5116798;28;20078;-63
2023/07/09 00:04:12;;;;;;;16.98;10.85;;;;;;;25.84;74.29;101558.41;5118463;28;20046;-63
2023/07/09 00:06:41;;;;;;;17.50;9.55;;;;;;;25.79;74.70;101553.88;5117373;28;20140;-65
2023/07/09 00:09:16;;;;;;;23.35;10.23;;;;;;;25.80;74.53;101563.88;5114848;28;20047;-63
2023/07/09 00:11:45;;;;;;;20.33;10.77;;;;;;;25.77;74.82;101555.41;5131873;28;20134;-63
2023/07/09 00:14:14;;;;;;;24.77;11.05;;;;;;;25.75;75.02;101555.75;5115903;28;20086;-61
2023/07/09 00:16:44;;;;;;;21.30;10.93;;;;;;;25.72;74.83;101562.03;5119002;28;20074;-64
2023/07/09 00:19:19;;;;;;;16.85;10.68;;;;;;;25.71;74.56;101560.41;5120247;28;20066;-63
2023/07/09 00:21:52;;;;;;;20.00;10.73;;;;;;;25.71;74.62;101560.41;5098466;28;20063;-63
2023/07/09 00:24:21;;;;;;;21.33;10.48;;;;;;;25.69;74.05;101560.78;5111818;28;20051;-62
2023/07/09 00:26:49;;;;;;;18.70;11.10;;;;;;;25.70;74.29;101565.19;5108412;28;20089;-64
2023/07/09 00:29:17;;;;;;;17.85;10.75;;;;;;;25.68;74.27;101564.72;5117080;28;20062;-66
2023/07/09 00:31:45;;;;;;;22.40;11.43;;;;;;;25.68;74.26;101566.69;5100176;28;20047;-66
2023/07/09 00:34:17;;;;;;;18.23;10.35;;;;;;;25.68;73.42;101570.28;5117008;28;20168;-64
2023/07/09 00:36:45;;;;;;;21.08;10.23;;;;;;;25.64;73.39;101572.19;5100005;28;20117;-64
2023/07/09 00:39:17;;;;;;;22.88;10.35;;;;;;;25.62;73.18;101568.13;5117100;28;20533;-64
2023/07/09 00:41:46;;;;;;;17.50;9.75;;;;;;;25.57;73.88;101571.13;5099903;28;20040;-64
2023/07/09 00:44:21;;;;;;;17.02;10.98;;;;;;;25.50;74.16;101582.91;5112198;28;20047;-64
2023/07/09 00:46:49;;;;;;;16.00;9.55;;;;;;;25.45;74.59;101581.19;5101484;28;20070;-64
2023/07/09 00:49:30;;;;;;;18.55;10.93;;;;;;;25.40;74.19;101584.22;5116273;28;20048;-65
2023/07/09 00:52:09;;;;;;;18.17;10.20;;;;;;;25.39;74.43;101596.50;5117579;28;20043;-65
2023/07/09 00:54:41;;;;;;;17.95;10.90;;;;;;;25.40;73.78;101584.22;5099522;28;20498;-64
2023/07/09 00:57:17;;;;;;;17.77;10.27;;;;;;;25.36;74.22;101583.28;5082596;28;20046;-66
2023/07/09 00:59:55;;;;;;;17.70;10.48;;;;;;;25.37;73.60;101582.09;5115899;28;20407;-64
2023/07/09 01:02:24;;;;;;;20.50;11.45;;;;;;;25.35;73.70;101576.09;5082840;28;20078;-67
2023/07/09 01:04:54;;;;;;;18.95;11.60;;;;;;;25.29;74.58;101583.06;5119255;28;20514;-66
2023/07/09 01:07:22;;;;;;;18.33;11.40;;;;;;;25.21;74.67;101586.78;5118832;28;20127;-66
2023/07/09 01:09:50;;;;;;;22.98;11.65;;;;;;;25.15;75.16;101579.78;5098147;28;20110;-65
2023/07/09 01:12:19;;;;;;;20.05;11.77;;;;;;;25.13;75.33;101582.09;5101220;28;20040;-64
2023/07/09 01:14:51;;;;;;;18.17;11.00;;;;;;;25.12;75.18;101583.28;5116202;28;20089;-65
2023/07/09 01:17:19;;;;;;;22.67;11.98;;;;;;;25.09;75.61;101582.00;5115566;28;20047;-64
2023/07/09 01:19:50;;;;;;;19.38;11.70;;;;;;;25.08;75.45;101578.38;5088055;28;20044;-65
2023/07/09 01:22:20;;;;;;;19.63;11.73;;;;;;;25.11;75.21;101578.84;5063771;28;20122;-64
2023/07/09 01:24:48;;;;;;;20.88;11.80;;;;;;;25.14;75.17;101572.59;5098947;28;20096;-65
2023/07/09 01:27:16;;;;;;;19.77;11.82;;;;;;;25.20;75.13;101576.78;5079945;28;20047;-68
2023/07/09 01:29:49;;;;;;;21.23;12.60;;;;;;;25.24;74.48;101578.53;5094995;28;20085;-65
2023/07/09 01:32:18;;;;;;;19.48;12.05;;;;;;;25.25;74.19;101576.53;5106372;28;20488;-67
2023/07/09 01:34:54;;;;;;;21.05;11.43;;;;;;;25.26;73.42;101578.19;5114715;28;20566;-65
2023/07/09 01:37:25;;;;;;;20.88;12.35;;;;;;;25.27;72.82;101582.59;5081777;28;20093;-65
2023/07/09 01:39:54;;;;;;;19.02;12.18;;;;;;;25.29;71.93;101585.84;5115618;28;20100;-65
2023/07/09 01:42:24;;;;;;;21.25;12.63;;;;;;;25.32;71.95;101581.53;5094926;28;20102;-67
2023/07/09 01:44:53;;;;;;;23.42;11.85;;;;;;;25.33;71.84;101586.78;5095697;28;20083;-67
2023/07/09 01:47:23;;;;;;;19.98;11.23;;;;;;;25.33;71.74;101589.56;5096695;28;20048;-65
2023/07/09 01:49:56;;;;;;;18.60;11.40;;;;;;;25.34;71.65;101588.38;5097599;28;20495;-65
2023/07/09 01:52:27;;;;;;;19.13;11.85;;;;;;;25.36;71.61;101593.63;5114627;28;20051;-65
2023/07/09 01:54:55;;;;;;;21.08;11.93;;;;;;;25.34;72.02;101596.75;5115881;28;20069;-66
2023/07/09 01:57:24;;;;;;;22.42;12.52;;;;;;;25.29;72.40;101594.22;5115021;28;20051;-66
2023/07/09 01:59:54;;;;;;;20.95;12.43;;;;;;;25.26;72.50;101600.50;5115263;28;20067;-68
2023/07/09 02:02:23;;;;;;;26.38;11.85;;;;;;;25.25;72.22;101593.28;5109364;28;20052;-65
2023/07/09 02:04:53;;;;;;;21.65;12.85;;;;;;;25.26;72.37;101600.50;5080478;28;20495;-67
2023/07/09 02:07:22;;;;;;;20.95;12.40;;;;;;;25.26;72.34;101598.50;5096671;28;20039;-68
2023/07/09 02:09:50;;;;;;;21.50;13.07;;;;;;;25.27;72.57;101590.94;5114606;28;20048;-67
2023/07/09 02:12:18;;;;;;;20.77;12.57;;;;;;;25.29;72.35;101599.78;5113202;28;20043;-68
2023/07/09 02:14:47;;;;;;;21.77;12.10;;;;;;;25.30;72.32;101601.41;5113609;28;20039;-65
2023/07/09 02:17:15;;;;;;;20.30;13.70;;;;;;;25.27;72.33;101594.56;5097219;28;20124;-69
2023/07/09 02:19:44;;;;;;;25.08;13.60;;;;;;;25.24;72.97;101600.03;5115163;28;20388;-68
2023/07/09 02:22:12;;;;;;;20.27;11.98;;;;;;;25.17;73.32;101597.81;5096592;28;20047;-65
2023/07/09 02:24:40;;;;;;;19.52;13.30;;;;;;;25.08;73.85;101595.09;5115480;28;20043;-65
2023/07/09 02:27:10;;;;;;;20.25;12.88;;;;;;;25.02;74.62;101601.28;5078844;28;20479;-65
2023/07/09 02:29:38;;;;;;;25.55;13.85;;;;;;;24.97;74.91;101595.94;5113593;28;20039;-63
2023/07/09 02:32:06;;;;;;;19.35;12.93;;;;;;;24.94;75.66;101593.81;5064823;28;20463;-65
2023/07/09 02:34:35;;;;;;;25.20;14.07;;;;;;;24.88;75.78;101594.06;5113922;28;20051;-69
2023/07/09 02:37:02;;;;;;;21.33;13.48;;;;;;;24.85;75.96;101597.53;5097460;28;20039;-66
2023/07/09 02:39:30;;;;;;;23.95;14.02;;;;;;;24.84;76.25;101595.91;5113036;28;20050;-65
2023/07/09 02:41:58;;;;;;;23.73;13.35;;;;;;;24.85;76.45;101596.72;5113659;28;20051;-66
2023/07/09 02:44:25;;;;;;;22.95;13.15;;;;;;;24.80;76.72;101600.56;5111863;28;20040;-66
2023/07/09 02:46:53;;;;;;;23.15;14.60;;;;;;;24.75;77.05;101598.00;5096231;28;20043;-64
2023/07/09 02:49:23;;;;;;;24.83;14.02;;;;;;;24.74;77.21;101595.56;5113214;28;20047;-64
2023/07/09 02:51:50;;;;;;;21.63;14.35;;;;;;;24.75;77.32;101602.75;5114834;28;20050;-63
2023/07/09 02:54:18;;;;;;;23.05;15.05;;;;;;;24.71;77.70;101605.41;5112214;28;20075;-65
2023/07/09 02:56:46;;;;;;;26.17;14.52;;;;;;;24.66;78.53;101606.44;5096362;28;20050;-67
2023/07/09 02:59:14;;;;;;;23.65;13.40;;;;;;;24.59;79.00;101602.59;5112909;28;20055;-64
2023/07/09 03:01:42;;;;;;;23.67;14.45;;;;;;;24.53;79.47;101602.00;5112791;28;20356;-65
2023/07/09 03:04:09;;;;;;;22.40;13.85;;;;;;;24.49;79.93;101601.06;5112794;28;20047;-65
2023/07/09 03:06:38;;;;;;;21.98;13.65;;;;;;;24.45;80.06;101594.53;5113465;28;20074;-64
2023/07/09 03:09:06;;;;;;;23.00;13.85;;;;;;;24.41;80.56;101601.94;5112977;28;20048;-66
2023/07/09 03:11:35;;;;;;;23.35;14.32;;;;;;;24.40;80.66;101603.09;5096148;28;20498;-68
2023/07/09 03:14:03;;;;;;;24.65;14.50;;;;;;;24.38;81.07;101602.63;5114611;28;20055;-65
2023/07/09 03:16:33;;;;;;;25.35;14.55;;;;;;;24.37;81.28;101601.00;5110547;28;20032;-65
2023/07/09 03:19:03;;;;;;;22.40;14.48;;;;;;;24.35;81.67;101606.91;5113401;28;20047;-65
2023/07/09 03:21:30;;;;;;;24.77;14.02;;;;;;;24.32;81.60;101601.22;5096618;28;20051;-64
2023/07/09 03:23:58;;;;;;;25.30;14.88;;;;;;;24.28;82.10;101601.09;5113373;28;20078;-66
2023/07/09 03:26:26;;;;;;;23.55;14.13;;;;;;;24.23;82.49;101599.31;5095334;28;20117;-69
2023/07/09 03:28:55;;;;;;;23.35;14.05;;;;;;;24.22;82.71;101608.00;5095180;28;20548;-65
2023/07/09 03:31:23;;;;;;;25.85;14.43;;;;;;;24.22;82.86;101591.31;5075813;28;20071;-65
2023/07/09 03:33:51;;;;;;;21.90;14.23;;;;;;;24.22;83.04;101603.28;5075921;28;20161;-64
2023/07/09 03:36:20;;;;;;;23.38;14.57;;;;;;;24.21;83.47;101589.69;5102019;28;20063;-65
2023/07/09 03:38:48;;;;;;;24.38;14.77;;;;;;;24.16;83.47;101593.50;5113034;28;20047;-64
2023/07/09 03:41:17;;;;;;;21.75;14.98;;;;;;;24.14;83.75;101595.81;5112985;28;20043;-64
2023/07/09 03:43:45;;;;;;;24.52;15.52;;;;;;;24.13;84.08;101599.75;5112215;28;20119;-65
2023/07/09 03:46:12;;;;;;;32.90;14.65;;;;;;;24.12;84.33;101595.31;5112535;28;20387;-66
2023/07/09 03:48:40;;;;;;;23.45;15.93;;;;;;;24.10;84.36;101594.88;5096835;28;20051;-65
2023/07/09 03:51:08;;;;;;;25.77;15.20;;;;;;;24.08;84.72;101593.59;5113773;28;20126;-65
2023/07/09 03:53:36;;;;;;;23.50;15.38;;;;;;;24.06;85.07;101595.91;5097919;28;20056;-65
2023/07/09 03:56:04;;;;;;;25.65;15.82;;;;;;;24.03;85.50;101598.22;5111860;28;20070;-65
2023/07/09 03:58:32;;;;;;;27.45;16.35;;;;;;;24.03;85.44;101592.63;5078691;28;20063;-65
2023/07/09 04:00:59;;;;;;;31.35;16.52;;;;;;;24.05;85.58;101591.47;5113545;28;20043;-65
2023/07/09 04:03:27;;;;;;;22.45;15.93;;;;;;;24.05;85.61;101591.47;5112064;28;20116;-65
2023/07/09 04:05:55;;;;;;;26.05;16.25;;;;;;;24.04;85.91;101590.66;5097968;28;20131;-65
2023/07/09 04:08:23;;;;;;;25.45;15.73;;;;;;;24.06;85.93;101593.94;5110467;28;20064;-65
2023/07/09 04:10:52;;;;;;;23.02;15.85;;;;;;;24.08;86.11;101597.19;5112483;28;20046;-65
2023/07/09 04:13:20;;;;;;;24.02;16.88;;;;;;;24.09;86.09;101598.81;5096520;28;20134;-62
2023/07/09 04:15:49;;;;;;;23.13;15.85;;;;;;;24.09;86.16;101595.22;5115844;28;20065;-62
2023/07/09 04:18:17;;;;;;;24.77;15.43;;;;;;;24.08;86.56;101597.19;5127981;28;20039;-62
2023/07/09 04:20:50;;;;;;;25.50;15.85;;;;;;;24.08;86.60;101594.41;5130615;28;20081;-62
2023/07/09 04:23:19;;;;;;;25.95;16.60;;;;;;;24.11;86.48;101590.13;5128879;28;20047;-63
2023/07/09 04:25:46;;;;;;;23.77;16.30;;;;;;;24.16;85.79;101599.06;5097826;28;20043;-64
2023/07/09 04:28:15;;;;;;;26.25;15.93;;;;;;;24.20;85.64;101599.22;5102978;28;20040;-63
2023/07/09 04:30:50;;;;;;;21.70;15.40;;;;;;;24.26;85.11;101585.88;5127021;28;20050;-63
2023/07/09 04:33:19;;;;;;;28.83;16.23;;;;;;;24.31;84.57;101594.81;5126250;28;20063;-62
2023/07/09 04:35:48;;;;;;;28.35;16.55;;;;;;;24.34;84.32;101599.72;5117835;28;20043;-62
2023/07/09 04:38:16;;;;;;;26.40;16.58;;;;;;;24.38;83.88;101605.41;5115359;28;20046;-63
2023/07/09 04:40:44;;;;;;;28.58;17.38;;;;;;;24.42;83.83;101603.56;5097585;28;20071;-64
2023/07/09 04:43:12;;;;;;;24.65;18.10;;;;;;;24.43;83.79;101602.41;5096354;28;20048;-64
2023/07/09 04:45:40;;;;;;;26.48;17.48;;;;;;;24.41;83.92;101602.78;5096146;28;20032;-63
2023/07/09 04:48:07;;;;;;;27.38;16.88;;;;;;;24.42;84.03;101603.56;5095195;28;20042;-63
2023/07/09 04:50:36;;;;;;;28.77;17.25;;;;;;;24.43;84.00;101602.41;5111296;28;20094;-64
2023/07/09 04:53:03;;;;;;;27.55;16.60;;;;;;;24.43;83.64;101607.97;5115082;28;20597;-64
2023/07/09 04:55:31;;;;;;;28.48;17.73;;;;;;;24.44;83.91;101606.84;5115424;28;20134;-65
2023/07/09 04:57:59;;;;;;;30.00;18.05;;;;;;;24.44;83.91;101609.63;5115467;28;20487;-64
2023/07/09 05:00:27;;;;;;;31.50;18.45;;;;;;;24.44;83.73;101607.66;5113521;28;20044;-64
2023/07/09 05:02:54;;;;;;;29.15;18.10;;;;;;;24.46;83.56;101607.31;5115644;28;20126;-64
2023/07/09 05:05:23;;;;;;;25.70;17.40;;;;;;;24.48;83.61;101599.44;5116606;28;20043;-64
2023/07/09 05:07:51;;;;;;;26.98;16.23;;;;;;;24.50;83.45;101613.03;5116019;28;20055;-63
2023/07/09 05:10:19;;;;;;;26.60;17.23;;;;;;;24.52;83.40;101602.34;5113999;28;20101;-63
2023/07/09 05:12:51;;;;;;;26.15;17.67;;;;;;;24.53;83.52;101602.00;5115525;28;20054;-65
2023/07/09 05:15:20;;;;;;;29.90;17.25;;;;;;;24.55;83.10;101599.69;5097482;28;20042;-63
2023/07/09 05:17:48;;;;;;;26.67;16.98;;;;;;;24.55;82.90;101599.69;5116611;28;20051;-63
2023/07/09 05:20:16;;;;;;;25.90;16.83;;;;;;;24.57;82.61;101607.72;5115235;28;20415;-65
2023/07/09 05:22:44;;;;;;;23.55;16.33;;;;;;;24.59;82.58;101602.59;5109322;28;20119;-63
2023/07/09 05:25:12;;;;;;;25.88;17.08;;;;;;;24.62;82.53;101605.50;5095719;28;20040;-63
2023/07/09 05:27:39;;;;;;;22.80;15.95;;;;;;;24.64;82.19;101597.63;5104881;28;20050;-64
2023/07/09 05:30:08;;;;;;;23.13;16.08;;;;;;;24.66;82.07;101594.50;5115962;28;20051;-63
2023/07/09 05:32:37;;;;;;;25.88;16.00;;;;;;;24.69;82.33;101602.16;5112926;28;20078;-64
2023/07/09 05:35:06;;;;;;;24.30;15.80;;;;;;;24.70;82.28;101589.03;5112164;28;20111;-65
2023/07/09 05:37:33;;;;;;;23.60;14.93;;;;;;;24.72;81.64;101595.06;5114293;28;20071;-64
2023/07/09 05:40:01;;;;;;;22.42;14.77;;;;;;;24.75;81.98;101597.16;5111320;28;20071;-64
2023/07/09 05:42:29;;;;;;;26.45;13.85;;;;;;;24.77;81.47;101598.44;5109409;28;20039;-64
2023/07/09 05:44:57;;;;;;;19.95;13.57;;;;;;;24.80;81.12;101594.97;5096596;28;20051;-63
2023/07/09 05:47:25;;;;;;;22.02;13.15;;;;;;;24.85;80.57;101602.31;5098044;28;20047;-64
2023/07/09 05:49:53;;;;;;;21.13;13.45;;;;;;;24.88;80.17;101605.19;5115864;28;20043;-64
2023/07/09 05:52:22;;;;;;;21.25;13.48;;;;;;;24.90;79.95;101599.28;5113888;28;20074;-64
2023/07/09 05:54:51;;;;;;;19.23;13.13;;;;;;;24.90;79.78;101604.88;5077734;28;20082;-64
2023/07/09 05:57:19;;;;;;;20.90;14.52;;;;;;;24.92;79.91;101598.94;5094750;28;20068;-64
2023/07/09 05:59:46;;;;;;;26.17;15.70;;;;;;;24.93;79.69;101606.16;5094170;28;20478;-63
2023/07/09 06:02:16;;;;;;;27.17;15.90;;;;;;;24.96;79.73;101611.03;5095045;28;20109;-62
2023/07/09 06:04:45;;;;;;;22.95;15.98;;;;;;;24.97;79.66;101612.66;5104555;28;20468;-63
2023/07/09 06:07:13;;;;;;;21.45;15.07;;;;;;;24.99;79.69;101610.31;5116128;28;20048;-65
2023/07/09 06:09:41;;;;;;;26.33;17.17;;;;;;;25.02;79.50;101613.25;5087931;28;20403;-62
2023/07/09 06:12:09;;;;;;;25.70;16.33;;;;;;;25.05;79.33;101617.31;5106709;28;20040;-63
2023/07/09 06:14:37;;;;;;;27.17;17.45;;;;;;;25.07;79.33;101621.38;5108295;28;20055;-63
2023/07/09 06:17:05;;;;;;;21.50;15.57;;;;;;;25.09;78.95;101616.25;5094514;28;20044;-62
2023/07/09 06:19:32;;;;;;;25.02;16.35;;;;;;;25.11;78.79;101612.31;5109622;28;20059;-63
2023/07/09 06:22:01;;;;;;;22.67;15.25;;;;;;;25.12;78.52;101611.16;5114929;28;20042;-64
2023/07/09 06:24:29;;;;;;;25.48;16.55;;;;;;;25.14;78.65;101617.22;5110733;28;20053;-63
2023/07/09 06:26:56;;;;;;;25.35;16.65;;;;;;;25.15;78.23;101614.06;5113437;28;20055;-63
2023/07/09 06:29:24;;;;;;;26.48;16.92;;;;;;;25.18;77.87;101620.94;5113165;28;20071;-64
2023/07/09 06:31:52;;;;;;;23.40;17.48;;;;;;;25.20;78.24;101624.19;5096916;28;20151;-62
2023/07/09 06:34:19;;;;;;;23.65;16.40;;;;;;;25.21;78.18;101623.03;5113940;28;20082;-66
2023/07/09 06:36:47;;;;;;;23.40;17.40;;;;;;;25.24;78.26;101619.56;5097770;28;20127;-62
2023/07/09 06:39:16;;;;;;;26.13;17.70;;;;;;;25.25;78.87;101618.38;5097056;28;20098;-62
2023/07/09 06:41:43;;;;;;;25.83;17.88;;;;;;;25.27;78.77;101628.03;5114120;28;20096;-63
2023/07/09 06:44:31;;;;;;;26.55;17.98;;;;;;;25.31;78.96;101624.56;5113499;28;20051;-64
2023/07/09 06:46:59;;;;;;;28.95;19.15;;;;;;;25.33;79.31;101617.47;5111678;28;20095;-62
2023/07/09 06:49:28;;;;;;;31.05;21.85;;;;;;;25.35;79.67;101615.13;5104651;28;20119;-65
2023/07/09 06:51:56;;;;;;;32.13;21.27;;;;;;;25.38;80.14;101614.44;5107444;28;20062;-63
2023/07/09 06:54:24;;;;;;;34.45;22.13;;;;;;;25.42;79.71;101615.38;5113936;28;20065;-63
2023/07/09 06:56:52;;;;;;;31.58;21.17;;;;;;;25.46;79.29;101609.88;5089249;28;20068;-66
2023/07/09 06:59:20;;;;;;;27.63;20.30;;;;;;;25.50;78.95;101611.63;5112024;28;20491;-63
2023/07/09 07:01:47;;;;;;;35.17;21.65;;;;;;;25.54;78.72;101613.72;5112562;28;20055;-63
2023/07/09 07:04:15;;;;;;;30.42;21.83;;;;;;;25.56;79.30;101614.97;5115369;28;20428;-63
2023/07/09 07:06:44;;;;;;;32.58;21.92;;;;;;;25.62;79.30;101615.56;5115605;28;20104;-64
2023/07/09 07:09:13;;;;;;;27.77;18.75;;;;;;;25.65;78.87;101612.06;5100439;28;20040;-63
2023/07/09 07:11:41;;;;;;;28.05;17.95;;;;;;;25.67;78.97;101618.13;5076849;28;20101;-63
2023/07/09 07:14:09;;;;;;;26.77;19.63;;;;;;;25.70;79.98;101614.63;5110527;28;20051;-63
2023/07/09 07:16:36;;;;;;;31.52;18.65;;;;;;;25.71;79.54;101605.91;5113775;28;20049;-63
2023/07/09 07:19:05;;;;;;;27.45;18.60;;;;;;;25.74;79.39;101615.53;5107262;28;20079;-64
2023/07/09 07:21:33;;;;;;;22.13;15.93;;;;;;;25.79;78.61;101606.91;5116429;28;20059;-63
2023/07/09 07:24:01;;;;;;;30.23;17.00;;;;;;;25.84;78.95;101611.44;5103787;28;20051;-63
2023/07/09 07:26:29;;;;;;;23.77;14.75;;;;;;;25.86;78.33;101612.75;5113494;28;20093;-64
2023/07/09 07:28:56;;;;;;;28.83;16.83;;;;;;;25.90;77.29;101608.09;5113481;28;20078;-65
2023/07/09 07:31:24;;;;;;;23.27;15.23;;;;;;;25.93;77.56;101607.38;5110216;28;20055;-64
2023/07/09 07:33:52;;;;;;;23.48;14.07;;;;;;;25.96;77.75;101605.03;5114521;28;20047;-64
2023/07/09 07:36:20;;;;;;;24.73;14.93;;;;;;;25.97;77.66;101609.44;5113189;28;20051;-65
2023/07/09 07:38:57;;;;;;;24.90;16.58;;;;;;;26.00;78.07;101605.94;5113291;28;20122;-64
2023/07/09 07:41:25;;;;;;;24.38;14.32;;;;;;;26.04;77.92;101607.66;5113645;28;20076;-64
2023/07/09 07:43:53;;;;;;;24.83;13.90;;;;;;;26.10;77.14;101614.66;5113005;28;20039;-64
2023/07/09 07:46:21;;;;;;;21.45;13.07;;;;;;;26.17;77.07;101611.25;5113137;28;20050;-65
2023/07/09 07:48:49;;;;;;;20.42;13.93;;;;;;;26.21;77.32;101606.56;5114402;28;20487;-64
2023/07/09 07:51:17;;;;;;;19.67;12.80;;;;;;;26.24;77.14;101605.88;5114373;28;20130;-64
2023/07/09 07:53:44;;;;;;;23.23;13.68;;;;;;;26.27;77.70;101607.13;5113975;28;20060;-63
2023/07/09 07:56:12;;;;;;;21.05;12.80;;;;;;;26.27;77.69;101605.16;5113046;28;20043;-63
2023/07/09 07:58:40;;;;;;;29.13;14.52;;;;;;;26.31;76.96;101611.66;5113613;28;20047;-63
2023/07/09 08:01:08;;;;;;;21.35;12.82;;;;;;;26.37;76.30;101608.59;5114370;28;20047;-65
2023/07/09 08:03:36;;;;;;;18.27;12.00;;;;;;;26.38;76.31;101611.00;5114629;28;20063;-65
2023/07/09 08:06:04;;;;;;;15.75;10.90;;;;;;;26.33;74.67;101614.88;5096192;28;20126;-64
2023/07/09 08:08:32;;;;;;;15.52;10.82;;;;;;;26.38;76.66;101621.38;5113547;28;20066;-66
2023/07/09 08:11:04;;;;;;;19.05;11.48;;;;;;;26.45;74.25;101613.19;5116831;28;20100;-63
2023/07/09 08:13:34;;;;;;;17.75;10.30;;;;;;;26.54;72.44;101606.31;5100112;28;20056;-64
2023/07/09 08:16:02;;;;;;;17.38;9.90;;;;;;;26.62;72.26;101612.91;5099689;28;20071;-64
2023/07/09 08:18:31;;;;;;;26.42;10.95;;;;;;;26.65;71.74;101606.59;5117377;28;20137;-64
2023/07/09 08:21:00;;;;;;;19.92;10.13;;;;;;;26.68;71.45;101608.69;5116389;28;20135;-64
2023/07/09 08:23:29;;;;;;;17.48;10.45;;;;;;;26.68;71.45;101605.88;5116866;28;20042;-64
2023/07/09 08:25:58;;;;;;;15.68;10.38;;;;;;;26.71;71.45;101607.16;5118952;28;20066;-63
2023/07/09 08:28:26;;;;;;;16.98;10.20;;;;;;;26.75;71.59;101603.28;5121791;28;20046;-63
2023/07/09 08:30:54;;;;;;;18.02;10.73;;;;;;;26.75;71.62;101597.69;5124720;27;20576;-65
2023/07/09 08:33:23;;;;;;;19.80;11.25;;;;;;;26.76;72.60;101599.28;5122266;28;20092;-63
2023/07/09 08:35:52;;;;;;;17.45;10.55;;;;;;;26.81;70.86;101594.59;5128471;28;20073;-65
2023/07/09 08:38:20;;;;;;;16.45;9.00;;;;;;;26.78;70.28;101596.16;5126565;28;20056;-64
2023/07/09 08:41:01;;;;;;;16.17;9.00;;;;;;;26.82;70.64;101596.22;5123589;28;20047;-63
2023/07/09 08:43:54;;;;;;;15.05;9.48;;;;;;;26.87;70.33;101593.97;5131278;28;20164;-61
2023/07/09 08:47:02;;;;;;;16.10;9.70;;;;;;;26.92;69.68;101592.91;5129466;28;20043;-66
2023/07/09 08:49:54;;;;;;;15.35;9.02;;;;;;;26.88;67.69;101597.59;5117949;28;20051;-64
2023/07/09 08:52:22;;;;;;;13.98;8.18;;;;;;;26.94;67.69;101593.34;5117958;28;20075;-64
2023/07/09 08:54:50;;;;;;;13.25;7.63;;;;;;;26.99;67.34;101595.88;5116152;28;20043;-64
2023/07/09 08:57:23;;;;;;;16.23;8.70;;;;;;;27.06;67.02;101592.41;5117004;28;20047;-64
2023/07/09 08:59:58;;;;;;;16.95;7.78;;;;;;;27.03;65.58;101591.16;5116382;28;20047;-64
2023/07/09 09:02:36;;;;;;;13.98;7.20;;;;;;;27.00;64.00;101589.09;5098628;28;20074;-64
2023/07/09 09:05:05;;;;;;;13.93;7.65;;;;;;;27.03;64.61;101595.94;5115525;28;20093;-65
2023/07/09 09:07:41;;;;;;;12.75;7.47;;;;;;;27.14;65.29;101595.03;5116533;28;20035;-65
2023/07/09 09:10:17;;;;;;;;;;;;;;;27.15;61.88;101596.66;5115820;28;20526;-64
2023/07/09 09:12:53;;;;;;;13.32;7.30;;;;;;;27.14;63.48;101592.25;5115765;28;19984;-63
2023/07/09 09:15:21;;;;;;;16.35;8.20;;;;;;;27.27;65.41;101592.16;5115533;28;20075;-65
2023/07/09 09:17:54;;;;;;;13.77;7.95;;;;;;;27.34;65.74;101589.53;5115174;28;20051;-64
2023/07/09 09:20:23;;;;;;;13.75;7.57;;;;;;;27.33;65.77;101583.13;5115763;28;20130;-65
2023/07/09 09:23:12;;;;;;;12.13;7.20;;;;;;;27.36;64.50;101581.59;5097835;28;20546;-65
2023/07/09 09:25:43;;;;;;;14.82;8.15;;;;;;;27.41;65.11;101578.50;5116126;28;20089;-66
2023/07/09 09:28:11;;;;;;;15.20;7.95;;;;;;;27.44;64.25;101583.38;5115828;28;20048;-64
2023/07/09 09:30:39;;;;;;;12.38;6.60;;;;;;;27.47;63.68;101591.06;5116221;28;20064;-65
2023/07/09 09:33:13;;;;;;;15.82;6.68;;;;;;;27.48;62.27;101584.25;5082255;28;20047;-65
2023/07/09 09:35:47;;;;;;;14.57;7.80;;;;;;;27.57;61.88;101590.47;5082362;28;20078;-65
2023/07/09 09:38:21;;;;;;;14.43;7.38;;;;;;;27.66;61.80;101590.28;5115694;28;20125;-64
2023/07/09 09:40:49;;;;;;;10.80;6.70;;;;;;;27.61;61.30;101590.53;5116282;28;20048;-65
2023/07/09 09:43:23;;;;;;;15.63;7.47;;;;;;;27.69;60.64;101591.53;5116041;28;20172;-65
2023/07/09 09:45:52;;;;;;;15.75;7.60;;;;;;;27.76;60.33;101583.28;5114915;28;20047;-65
2023/07/09 09:48:29;;;;;;;12.50;7.07;;;;;;;27.82;60.37;101576.19;5115000;28;20117;-65
2023/07/09 09:51:01;;;;;;;13.30;7.60;;;;;;;27.85;61.32;101563.47;5116042;28;20116;-63
2023/07/09 09:53:34;;;;;;;13.73;6.93;;;;;;;27.93;59.56;101565.25;5115694;28;20046;-65
2023/07/09 09:56:05;;;;;;;13.70;6.85;;;;;;;28.00;59.01;101563.41;5114336;28;20043;-65
2023/07/09 09:58:34;;;;;;;11.85;6.40;;;;;;;27.97;59.18;101552.09;5115668;28;20391;-64
2023/07/09 10:01:01;;;;;;;13.15;6.82;;;;;;;28.00;59.15;101555.00;5115763;28;20047;-65
2023/07/09 10:03:34;;;;;;;14.73;6.85;;;;;;;28.07;59.76;101559.09;5114263;28;20116;-64
2023/07/09 10:06:17;;;;;;;14.50;7.38;;;;;;;28.14;59.66;101548.03;5114467;28;20058;-65
2023/07/09 10:09:02;;;;;;;15.52;6.82;;;;;;;28.18;59.22;101549.72;5114144;28;20146;-65
2023/07/09 10:11:59;;;;;;;15.98;7.32;;;;;;;28.28;59.01;101544.69;5114164;28;20453;-64
2023/07/09 10:15:05;;;;;;;12.25;6.78;;;;;;;28.28;59.69;101545.50;5113558;28;20043;-64
2023/07/09 10:17:37;;;;;;;13.65;6.57;;;;;;;28.33;59.93;101548.00;5015506;28;20041;-65
2023/07/09 10:20:23;;;;;;;14.52;6.43;;;;;;;28.29;58.99;101547.16;5097409;28;20070;-64
2023/07/09 10:22:57;;;;;;;13.27;6.90;;;;;;;28.36;58.58;101552.88;5115513;28;20069;-64
2023/07/09 10:25:30;;;;;;;11.02;6.53;;;;;;;28.40;57.95;101545.31;5114317;28;20093;-64
2023/07/09 10:28:32;;;;;;;14.93;6.10;;;;;;;28.53;56.32;101548.81;5097007;28;20062;-65
2023/07/09 10:31:00;;;;;;;15.90;6.53;;;;;;;28.65;55.02;101548.63;5114803;28;20040;-64
2023/07/09 10:33:45;;;;;;;13.10;6.15;;;;;;;28.62;54.82;101554.16;5096814;28;20043;-65
2023/07/09 10:36:24;;;;;;;12.52;6.60;;;;;;;28.54;54.14;101555.22;5115244;28;20055;-64
2023/07/09 10:39:07;;;;;;;13.07;6.50;;;;;;;28.56;53.88;101561.25;5114945;28;20552;-63
2023/07/09 10:41:36;;;;;;;11.77;6.13;;;;;;;28.55;53.34;101565.22;5097167;28;20067;-65
2023/07/09 10:44:15;;;;;;;14.82;6.20;;;;;;;28.61;55.59;101560.94;5113922;28;20047;-65
2023/07/09 10:46:46;;;;;;;14.02;6.72;;;;;;;28.64;55.61;101568.59;5112804;28;20506;-65
2023/07/09 10:49:15;;;;;;;13.73;6.65;;;;;;;28.73;54.71;101560.75;5080190;28;20134;-64
2023/07/09 10:51:51;;;;;;;11.40;5.88;;;;;;;28.78;54.15;101559.63;5113981;28;20047;-65
2023/07/09 10:54:49;;;;;;;13.70;6.72;;;;;;;28.88;54.97;101567.41;5114048;28;20122;-64
2023/07/09 10:57:47;;;;;;;15.73;7.07;;;;;;;29.05;53.87;101566.06;5114845;28;20075;-63
2023/07/09 11:00:21;;;;;;;16.23;6.82;;;;;;;29.20;52.82;101562.34;5113514;28;20096;-65
2023/07/09 11:03:03;;;;;;;12.18;7.20;;;;;;;29.23;53.72;101555.97;5104759;28;20059;-64
2023/07/09 11:05:33;;;;;;;12.32;6.35;;;;;;;29.20;53.85;101553.94;4384273;28;10000101;-65
2023/07/09 11:08:10;;;;;;;12.32;6.03;;;;;;;29.18;53.82;101547.06;5109474;28;20483;-65
2023/07/09 11:10:44;;;;;;;11.07;6.53;;;;;;;29.15;53.93;101543.00;5076018;28;20069;-65
2023/07/09 11:13:20;;;;;;;12.30;6.75;;;;;;;29.21;53.77;101538.69;5108333;28;20048;-66
2023/07/09 11:15:50;;;;;;;14.77;6.68;;;;;;;29.37;52.84;101532.06;5109948;28;20056;-64
2023/07/09 11:18:26;;;;;;;14.68;6.53;;;;;;;29.37;52.78;101529.28;5109167;28;20311;-66
2023/07/09 11:21:12;;;;;;;;;;;;;;;29.43;51.38;101525.75;5107798;28;20108;-66
2023/07/09 11:23:50;;;;;;;10.40;5.50;;;;;;;29.52;49.84;101533.91;5092756;28;20022;-64
2023/07/09 11:26:33;;;;;;;15.60;5.95;;;;;;;29.59;50.12;101536.81;5109443;28;20049;-65
2023/07/09 11:29:23;;;;;;;12.45;5.97;;;;;;;29.58;50.97;101542.78;5109433;28;20539;-65